createdAt,value
2022-12-03T00:01:07.671Z,135.70
2022-12-03T00:03:09.714Z,151.55
2022-12-03T00:05:11.497Z,145.05
2022-12-03T00:07:12.932Z,170.60
2022-12-03T00:09:14.409Z,159.07
2022-12-03T00:11:15.883Z,153.63
2022-12-03T00:13:17.318Z,123.85
2022-12-03T00:15:18.821Z,147.02
2022-12-03T00:17:20.244Z,138.50
2022-12-03T00:19:21.694Z,139.93
2022-12-03T00:21:24.811Z,138.20
2022-12-03T00:23:26.634Z,139.77
2022-12-03T00:25:28.315Z,117.57
2022-12-03T00:27:29.766Z,141.40
2022-12-03T00:29:32.805Z,121.30
2022-12-03T00:31:34.351Z,127.70
2022-12-03T00:33:35.915Z,129.88
2022-12-03T00:35:37.464Z,120.72
2022-12-03T00:37:39.105Z,177.55
2022-12-03T00:39:40.585Z,128.88
2022-12-03T00:41:42.119Z,129.88
2022-12-03T00:43:43.878Z,125.10
2022-12-03T00:45:45.431Z,122.03
2022-12-03T00:47:46.876Z,124.00
2022-12-03T00:49:48.478Z,122.78
2022-12-03T00:51:50.161Z,129.63
2022-12-03T00:53:51.722Z,130.70
2022-12-03T00:55:53.200Z,133.20
2022-12-03T00:57:54.695Z,204.80
2022-12-03T00:59:56.158Z,147.57
2022-12-03T01:01:57.734Z,136.52
2022-12-03T01:03:59.212Z,137.25
2022-12-03T01:06:00.690Z,123.97
2022-12-03T01:08:02.280Z,122.68
2022-12-03T01:10:05.395Z,128.10
2022-12-03T01:12:06.956Z,125.47
2022-12-03T01:14:11.802Z,126.07
2022-12-03T01:16:13.366Z,129.75
2022-12-03T01:18:14.944Z,118.53
2022-12-03T01:20:16.670Z,120.63
2022-12-03T01:22:18.709Z,127.78
2022-12-03T01:24:20.389Z,120.68
2022-12-03T01:26:21.939Z,133.43
2022-12-03T01:28:23.369Z,122.72
2022-12-03T01:30:24.910Z,111.97
2022-12-03T01:32:26.507Z,123.97
2022-12-03T01:34:28.046Z,123.63
2022-12-03T01:36:29.548Z,127.15
2022-12-03T01:38:31.010Z,134.77
2022-12-03T01:40:32.615Z,134.63
2022-12-03T01:42:36.685Z,124.35
2022-12-03T01:44:40.056Z,137.80
2022-12-03T01:46:41.899Z,135.55
2022-12-03T01:48:44.089Z,134.95
2022-12-03T01:50:46.002Z,145.35
2022-12-03T01:52:47.562Z,133.88
2022-12-03T01:54:56.013Z,128.77
2022-12-03T01:56:58.249Z,130.97
2022-12-03T01:58:59.683Z,134.30
2022-12-03T02:01:06.421Z,122.40
2022-12-03T02:03:12.462Z,140.00
2022-12-03T02:05:19.648Z,131.48
2022-12-03T02:07:29.916Z,124.85
2022-12-03T02:09:31.409Z,128.20
2022-12-03T02:11:37.141Z,127.22
2022-12-03T02:13:38.803Z,130.77
2022-12-03T02:15:40.638Z,124.63
2022-12-03T02:17:42.645Z,140.02
2022-12-03T02:19:44.310Z,122.85
2022-12-03T02:22:05.700Z,136.10
2022-12-03T02:24:37.392Z,138.02
2022-12-03T02:26:38.965Z,174.13
2022-12-03T02:28:40.503Z,127.05
2022-12-03T02:30:42.029Z,132.20
2022-12-03T02:32:43.864Z,131.90
2022-12-03T02:34:46.319Z,138.68
2022-12-03T02:36:47.744Z,142.32
2022-12-03T02:38:49.793Z,133.85
2022-12-03T02:40:54.951Z,126.68
2022-12-03T02:42:59.779Z,131.57
2022-12-03T02:45:22.161Z,126.40
2022-12-03T02:47:23.816Z,143.13
2022-12-03T02:49:25.391Z,131.60
2022-12-03T02:51:26.938Z,122.88
2022-12-03T02:53:32.883Z,123.57
2022-12-03T02:55:37.417Z,122.95
2022-12-03T02:57:39.859Z,120.15
2022-12-03T02:59:42.154Z,117.50
2022-12-03T03:01:44.044Z,126.03
2022-12-03T03:03:48.048Z,125.05
2022-12-03T03:05:50.647Z,126.20
2022-12-03T03:07:52.284Z,125.22
2022-12-03T03:09:53.944Z,122.70
2022-12-03T03:11:55.502Z,117.07
2022-12-03T03:13:57.037Z,119.93
2022-12-03T03:15:58.966Z,126.38
2022-12-03T03:18:00.519Z,130.05
2022-12-03T03:20:03.590Z,113.43
2022-12-03T03:22:05.287Z,129.10
2022-12-03T03:24:07.101Z,121.85
2022-12-03T03:26:11.646Z,117.40
2022-12-03T03:28:14.568Z,124.20
2022-12-03T03:30:16.280Z,116.90
2022-12-03T03:32:17.908Z,122.20
2022-12-03T03:34:19.503Z,136.88
2022-12-03T03:36:21.327Z,126.78
2022-12-03T03:38:24.143Z,135.70
2022-12-03T03:40:27.021Z,111.53
2022-12-03T03:42:28.866Z,116.88
2022-12-03T03:44:30.514Z,121.22
2022-12-03T03:46:33.590Z,125.47
2022-12-03T03:48:35.529Z,124.60
2022-12-03T03:50:37.166Z,117.60
2022-12-03T03:52:40.192Z,130.32
2022-12-03T03:54:41.839Z,140.07
2022-12-03T03:56:43.394Z,130.05
2022-12-03T03:58:45.212Z,136.05
2022-12-03T04:00:47.009Z,133.65
2022-12-03T04:02:48.528Z,137.95
2022-12-03T04:04:51.793Z,139.52
2022-12-03T04:06:53.527Z,156.93
2022-12-03T04:08:55.029Z,155.27
2022-12-03T04:11:15.214Z,168.38
2022-12-03T04:13:16.680Z,156.73
2022-12-03T04:15:18.129Z,151.57
2022-12-03T04:17:19.624Z,155.30
2022-12-03T04:19:21.062Z,158.48
2022-12-03T04:21:42.508Z,156.63
2022-12-03T04:23:44.012Z,165.32
2022-12-03T04:26:03.949Z,159.20
2022-12-03T04:28:24.061Z,164.90
2022-12-03T04:30:25.613Z,156.32
2022-12-03T04:32:45.641Z,160.60
2022-12-03T04:35:05.839Z,172.25
2022-12-03T04:37:07.616Z,161.05
2022-12-03T04:39:09.073Z,151.70
2022-12-03T04:41:10.524Z,182.18
2022-12-03T04:43:13.051Z,180.18
2022-12-03T04:45:14.686Z,169.25
2022-12-03T04:47:34.183Z,198.68
2022-12-03T04:49:43.770Z,187.65
2022-12-03T04:51:45.247Z,183.60
2022-12-03T04:53:46.681Z,188.77
2022-12-03T04:55:48.174Z,211.57
2022-12-03T04:57:49.616Z,210.77
2022-12-03T04:59:51.148Z,221.60
2022-12-03T05:01:52.767Z,232.38
2022-12-03T05:03:54.435Z,229.55
2022-12-03T05:05:55.980Z,232.10
2022-12-03T05:07:57.540Z,220.90
2022-12-03T05:09:58.997Z,229.75
2022-12-03T05:12:00.574Z,232.32
2022-12-03T05:14:02.293Z,211.80
2022-12-03T05:16:04.205Z,225.57
2022-12-03T05:18:05.739Z,247.85
2022-12-03T05:20:28.066Z,234.30
2022-12-03T05:22:29.529Z,223.02
2022-12-03T05:24:30.984Z,239.98
2022-12-03T05:26:32.586Z,228.15
2022-12-03T05:28:34.085Z,252.38
2022-12-03T05:30:35.863Z,244.15
2022-12-03T05:32:38.478Z,229.88
2022-12-03T05:34:39.911Z,248.95
2022-12-03T05:36:41.463Z,258.23
2022-12-03T05:38:42.948Z,236.50
2022-12-03T05:40:44.819Z,248.40
2022-12-03T05:42:56.886Z,244.70
2022-12-03T05:44:58.342Z,232.93
2022-12-03T05:46:59.800Z,361.45
2022-12-03T05:49:01.325Z,254.93
2022-12-03T05:51:02.814Z,201.95
2022-12-03T05:53:04.391Z,238.27
2022-12-03T05:55:07.120Z,199.32
2022-12-03T05:57:08.629Z,200.05
2022-12-03T05:59:10.094Z,231.75
2022-12-03T06:01:11.573Z,226.02
2022-12-03T06:03:13.138Z,244.07
2022-12-03T06:05:15.549Z,239.88
2022-12-03T06:07:17.025Z,254.07
2022-12-03T06:09:18.504Z,241.05
2022-12-03T06:11:19.966Z,241.25
2022-12-03T06:13:21.502Z,256.67
2022-12-03T06:15:23.390Z,275.00
2022-12-03T06:17:24.874Z,251.00
2022-12-03T06:19:26.356Z,258.35
2022-12-03T06:21:27.818Z,264.15
2022-12-03T06:23:29.398Z,240.80
2022-12-03T06:25:30.912Z,248.65
2022-12-03T06:27:32.365Z,256.40
2022-12-03T06:29:34.033Z,267.80
2022-12-03T06:31:36.065Z,264.92
2022-12-03T06:33:37.581Z,242.50
2022-12-03T06:35:39.042Z,260.48
2022-12-03T06:37:40.515Z,211.38
2022-12-03T06:39:42.782Z,248.70
2022-12-03T06:41:44.315Z,262.13
2022-12-03T06:43:45.807Z,244.73
2022-12-03T06:45:48.035Z,255.50
2022-12-03T06:47:49.618Z,269.58
2022-12-03T06:49:51.160Z,248.25
2022-12-03T06:51:52.717Z,248.23
2022-12-03T06:53:54.188Z,200.77
2022-12-03T06:55:55.630Z,213.07
2022-12-03T06:57:57.175Z,223.88
2022-12-03T06:59:59.003Z,241.25
2022-12-03T07:02:01.155Z,251.10
2022-12-03T07:04:02.707Z,219.35
2022-12-03T07:06:04.206Z,216.68
2022-12-03T07:08:06.005Z,220.10
2022-12-03T07:10:08.321Z,218.30
2022-12-03T07:12:10.131Z,253.45
2022-12-03T07:14:11.756Z,176.15
2022-12-03T07:16:13.300Z,194.80
2022-12-03T07:18:14.788Z,224.90
2022-12-03T07:20:16.361Z,207.27
2022-12-03T07:22:17.847Z,180.43
2022-12-03T07:24:19.333Z,141.57
2022-12-03T07:26:21.072Z,155.38
2022-12-03T07:28:22.527Z,197.68
2022-12-03T07:30:25.613Z,152.63
2022-12-03T07:32:27.030Z,164.15
2022-12-03T07:34:28.556Z,146.40
2022-12-03T07:36:30.070Z,166.77
2022-12-03T07:38:31.693Z,367.83
2022-12-03T07:40:33.147Z,254.32
2022-12-03T07:42:34.587Z,329.73
2022-12-03T07:44:36.173Z,141.43
2022-12-03T07:46:37.665Z,183.52
2022-12-03T07:48:39.231Z,137.52
2022-12-03T07:50:40.681Z,141.48
2022-12-03T07:52:42.387Z,118.05
2022-12-03T07:54:44.018Z,120.90
2022-12-03T07:56:45.457Z,120.68
2022-12-03T07:58:46.937Z,122.97
2022-12-03T08:00:48.412Z,115.90
2022-12-03T08:02:49.964Z,102.13
2022-12-03T08:04:51.747Z,121.55
2022-12-03T08:06:53.533Z,115.28
2022-12-03T08:08:55.018Z,135.63
2022-12-03T08:10:56.513Z,123.50
2022-12-03T08:12:59.626Z,176.52
2022-12-03T08:15:01.762Z,141.88
2022-12-03T08:17:10.848Z,117.85
2022-12-03T08:19:14.726Z,100.75
2022-12-03T08:21:19.217Z,93.43
2022-12-03T08:23:23.931Z,124.00
2022-12-03T08:25:30.827Z,142.15
2022-12-03T08:27:34.936Z,118.05
2022-12-03T08:29:36.376Z,154.38
2022-12-03T08:31:38.746Z,149.35
2022-12-03T08:33:41.817Z,120.40
2022-12-03T08:35:49.910Z,128.15
2022-12-03T08:38:43.988Z,143.93
2022-12-03T08:40:48.389Z,182.57
2022-12-03T08:45:35.257Z,145.43
2022-12-03T08:47:40.437Z,155.75
2022-12-03T08:52:21.823Z,148.20
2022-12-03T08:54:25.945Z,156.88
2022-12-03T08:59:25.742Z,148.00
2022-12-03T09:01:44.528Z,129.70
2022-12-03T09:03:52.558Z,117.03
2022-12-03T09:05:54.181Z,145.88
2022-12-03T09:07:55.903Z,139.88
2022-12-03T09:09:57.496Z,136.93
2022-12-03T09:11:59.150Z,124.25
2022-12-03T09:14:00.603Z,141.77
2022-12-03T09:16:02.158Z,170.90
2022-12-03T09:18:03.773Z,178.05
2022-12-03T09:20:07.051Z,203.43
2022-12-03T09:22:08.478Z,203.93
2022-12-03T09:24:09.924Z,139.27
2022-12-03T09:26:11.338Z,127.97
2022-12-03T09:28:12.787Z,143.40
2022-12-03T09:30:14.628Z,137.20
2022-12-03T09:32:18.513Z,131.93
2022-12-03T09:34:20.438Z,127.32
2022-12-03T09:36:21.910Z,117.75
2022-12-03T09:38:23.353Z,155.90
2022-12-03T09:40:24.861Z,171.70
2022-12-03T09:42:26.476Z,158.55
2022-12-03T09:44:34.077Z,129.85
2022-12-03T09:46:36.327Z,136.20
2022-12-03T09:48:37.981Z,116.20
2022-12-03T09:50:41.701Z,121.72
2022-12-03T09:52:45.215Z,184.23
2022-12-03T09:54:51.989Z,137.57
2022-12-03T09:56:56.021Z,199.07
2022-12-03T09:58:57.708Z,206.35
2022-12-03T10:00:59.438Z,162.00
2022-12-03T10:03:04.410Z,143.95
2022-12-03T10:05:06.176Z,101.35
2022-12-03T10:07:09.418Z,132.13
2022-12-03T10:09:12.720Z,123.03
2022-12-03T10:11:15.403Z,126.20
2022-12-03T10:13:25.925Z,134.48
2022-12-03T10:15:27.802Z,163.30
2022-12-03T10:17:32.012Z,178.40
2022-12-03T10:19:35.984Z,194.20
2022-12-03T10:24:19.086Z,140.45
2022-12-03T10:26:39.155Z,138.25
2022-12-03T10:28:43.607Z,135.75
2022-12-03T10:30:55.655Z,150.23
2022-12-03T10:32:59.088Z,160.05
2022-12-03T10:35:23.240Z,152.50
2022-12-03T10:37:24.766Z,144.27
2022-12-03T10:39:26.375Z,142.38
2022-12-03T10:41:28.993Z,150.88
2022-12-03T10:43:30.490Z,142.93
2022-12-03T10:45:31.905Z,169.27
2022-12-03T10:47:33.491Z,142.10
2022-12-03T10:49:35.436Z,146.30
2022-12-03T10:51:39.113Z,170.45
2022-12-03T10:53:41.420Z,378.98
2022-12-03T10:55:47.242Z,430.20
2022-12-03T10:57:48.749Z,171.00
2022-12-03T10:59:50.595Z,183.00
2022-12-03T11:01:52.742Z,193.32
2022-12-03T11:04:01.102Z,242.07
2022-12-03T11:06:03.152Z,161.73
2022-12-03T11:08:04.865Z,167.02
2022-12-03T11:10:14.511Z,155.48
2022-12-03T11:14:59.267Z,355.33
2022-12-03T11:17:01.571Z,271.88
2022-12-03T11:19:04.132Z,169.73
2022-12-03T11:21:19.050Z,191.25
2022-12-03T11:23:46.549Z,321.38
2022-12-03T11:25:50.713Z,161.55
2022-12-03T11:28:14.254Z,198.35
2022-12-03T11:30:51.408Z,213.43
2022-12-03T11:33:01.230Z,127.53
2022-12-03T11:37:10.386Z,172.73
2022-12-03T11:39:12.001Z,131.88
2022-12-03T11:41:19.311Z,134.30
2022-12-03T11:43:56.660Z,132.98
2022-12-03T11:46:10.560Z,125.68
2022-12-03T11:48:16.141Z,117.97
2022-12-03T11:50:40.903Z,123.40
2022-12-03T11:53:21.310Z,149.57
2022-12-03T11:55:34.689Z,134.32
2022-12-03T11:58:02.494Z,136.55
2022-12-03T12:00:19.641Z,134.82
2022-12-03T12:02:21.319Z,122.82
2022-12-03T12:06:54.682Z,131.43
2022-12-03T12:08:59.151Z,130.95
2022-12-03T12:11:01.633Z,128.02
2022-12-03T12:13:03.503Z,152.98
2022-12-03T12:15:56.034Z,184.40
2022-12-03T12:17:57.755Z,400.42
2022-12-03T12:23:22.648Z,481.20
2022-12-03T12:25:30.271Z,144.20
2022-12-03T12:27:40.182Z,209.23
2022-12-03T12:30:04.568Z,241.20
2022-12-03T12:32:09.034Z,492.02
2022-12-03T12:36:48.640Z,409.67
2022-12-03T12:38:50.225Z,153.15
2022-12-03T12:40:52.414Z,463.15
2022-12-03T12:42:55.325Z,329.67
2022-12-03T12:45:20.135Z,256.02
2022-12-03T12:47:21.969Z,200.00
2022-12-03T12:49:27.141Z,326.40
2022-12-03T12:53:49.056Z,307.70
2022-12-03T12:55:59.584Z,409.75
2022-12-03T12:58:28.408Z,495.20
2022-12-03T13:00:30.083Z,172.02
2022-12-03T13:02:31.800Z,184.38
2022-12-03T13:07:12.901Z,171.13
2022-12-03T13:09:21.776Z,237.38
2022-12-03T13:11:38.759Z,149.00
2022-12-03T13:14:01.851Z,180.90
2022-12-03T13:16:20.129Z,271.58
2022-12-03T13:18:40.605Z,199.95
2022-12-03T13:21:33.231Z,213.88
2022-12-03T13:23:37.674Z,108.10
2022-12-03T13:28:37.181Z,139.18
2022-12-03T13:30:39.319Z,259.55
2022-12-03T13:32:43.365Z,265.20
2022-12-03T13:34:45.241Z,168.65
2022-12-03T13:36:51.947Z,395.55
2022-12-03T13:38:58.750Z,267.20
2022-12-03T13:41:14.962Z,332.48
2022-12-03T13:43:19.333Z,205.38
2022-12-03T13:45:20.973Z,184.88
2022-12-03T13:50:28.911Z,184.90
2022-12-03T13:52:32.774Z,190.00
2022-12-03T13:54:37.998Z,434.58
2022-12-03T13:56:39.518Z,374.33
2022-12-03T13:58:41.097Z,179.88
2022-12-03T14:00:42.858Z,227.55
2022-12-03T14:02:44.578Z,207.85
2022-12-03T14:04:58.428Z,196.35
2022-12-03T14:07:01.872Z,183.32
2022-12-03T14:09:04.231Z,209.52
2022-12-03T14:11:06.341Z,206.82
2022-12-03T14:13:08.292Z,212.90
2022-12-03T14:15:12.920Z,239.48
2022-12-03T14:17:14.516Z,528.75
2022-12-03T14:19:16.075Z,190.25
2022-12-03T14:21:17.550Z,248.65
2022-12-03T14:23:19.022Z,241.20
2022-12-03T14:25:28.260Z,188.32
2022-12-03T14:29:43.991Z,232.00
2022-12-03T14:31:48.279Z,187.40
2022-12-03T14:33:57.116Z,211.00
2022-12-03T14:35:59.162Z,278.33
2022-12-03T14:38:00.817Z,287.77
2022-12-03T14:40:09.216Z,332.92
2022-12-03T14:42:13.734Z,260.25
2022-12-03T14:44:15.648Z,250.77
2022-12-03T14:46:20.220Z,248.70
2022-12-03T14:48:29.586Z,221.63
2022-12-03T14:50:31.064Z,165.32
2022-12-03T14:52:53.757Z,249.45
2022-12-03T14:54:55.217Z,193.45
2022-12-03T14:57:01.558Z,197.35
2022-12-03T14:59:03.079Z,211.55
2022-12-03T15:01:04.780Z,226.20
2022-12-03T15:03:06.349Z,170.52
2022-12-03T15:05:08.085Z,292.05
2022-12-03T15:07:09.806Z,304.45
2022-12-03T15:09:11.466Z,321.42
2022-12-03T15:11:13.017Z,254.43
2022-12-03T15:13:19.854Z,273.83
2022-12-03T15:15:41.711Z,230.60
2022-12-03T15:17:45.744Z,212.93
2022-12-03T15:19:47.387Z,217.95
2022-12-03T15:21:50.394Z,240.35
2022-12-03T15:23:53.981Z,238.57
2022-12-03T15:25:55.453Z,197.48
2022-12-03T15:27:57.291Z,209.05
2022-12-03T15:30:01.988Z,182.05
2022-12-03T15:34:56.876Z,182.82
2022-12-03T15:36:59.281Z,238.65
2022-12-03T15:39:00.925Z,226.40
2022-12-03T15:41:26.136Z,234.73
2022-12-03T15:43:27.790Z,196.85
2022-12-03T15:45:29.352Z,222.32
2022-12-03T15:47:30.969Z,228.40
2022-12-03T15:49:32.616Z,129.75
2022-12-03T15:53:53.583Z,183.63
2022-12-03T15:58:31.319Z,168.05
2022-12-03T16:00:32.936Z,134.00
2022-12-03T16:02:52.224Z,223.68
2022-12-03T16:04:57.822Z,128.88
2022-12-03T16:06:59.294Z,178.10
2022-12-03T16:09:00.736Z,180.45
2022-12-03T16:11:02.246Z,207.80
2022-12-03T16:13:05.886Z,174.35
2022-12-03T16:15:07.749Z,202.57
2022-12-03T16:17:17.054Z,294.73
2022-12-03T16:19:26.890Z,238.85
2022-12-03T16:21:28.967Z,399.38
2022-12-03T16:23:35.160Z,305.35
2022-12-03T16:26:03.107Z,326.23
2022-12-03T16:30:48.895Z,364.95
2022-12-03T16:32:52.387Z,321.08
2022-12-03T16:35:06.610Z,268.83
2022-12-03T16:37:08.322Z,308.30
2022-12-03T16:41:55.513Z,327.45
2022-12-03T16:44:07.186Z,245.63
2022-12-03T16:46:14.531Z,284.58
2022-12-03T16:48:28.934Z,267.10
2022-12-03T16:50:30.685Z,263.00
2022-12-03T16:52:36.778Z,333.50
2022-12-03T16:54:41.377Z,338.13
2022-12-03T16:56:43.023Z,392.13
2022-12-03T16:58:44.727Z,321.63
2022-12-03T17:00:46.341Z,291.15
2022-12-03T17:02:48.379Z,460.40
2022-12-03T17:04:49.973Z,416.60
2022-12-03T17:06:51.639Z,420.88
2022-12-03T17:08:53.166Z,373.92
2022-12-03T17:10:54.760Z,327.42
2022-12-03T17:13:11.722Z,351.83
2022-12-03T17:15:13.420Z,360.52
2022-12-03T17:17:15.099Z,388.25
2022-12-03T17:19:17.189Z,406.13
2022-12-03T17:21:18.693Z,373.95
2022-12-03T17:23:20.252Z,380.50
2022-12-03T17:25:21.933Z,379.05
2022-12-03T17:27:24.918Z,413.63
2022-12-03T17:29:26.509Z,317.05
2022-12-03T17:31:28.366Z,293.13
2022-12-03T17:33:29.987Z,295.58
2022-12-03T17:35:31.485Z,320.20
2022-12-03T17:37:32.933Z,308.10
2022-12-03T17:39:34.627Z,304.65
2022-12-03T17:41:36.134Z,325.42
2022-12-03T17:43:37.609Z,326.13
2022-12-03T17:45:39.030Z,210.50
2022-12-03T17:47:40.498Z,225.38
2022-12-03T17:49:41.955Z,303.60
2022-12-03T17:51:43.536Z,365.17
2022-12-03T17:53:45.058Z,290.33
2022-12-03T17:55:46.999Z,329.25
2022-12-03T17:57:48.459Z,294.17
2022-12-03T17:59:50.018Z,336.60
2022-12-03T18:01:51.596Z,295.83
2022-12-03T18:03:53.204Z,264.60
2022-12-03T18:05:55.291Z,348.27
2022-12-03T18:07:56.875Z,467.08
2022-12-03T18:09:58.430Z,585.70
2022-12-03T18:11:59.880Z,548.25
2022-12-03T18:14:01.478Z,425.42
2022-12-03T18:16:03.001Z,452.52
2022-12-03T18:18:04.684Z,367.33
2022-12-03T18:20:06.788Z,470.70
2022-12-03T18:22:08.442Z,441.20
2022-12-03T18:24:10.217Z,436.17
2022-12-03T18:26:11.931Z,493.90
2022-12-03T18:28:13.419Z,523.30
2022-12-03T18:30:15.185Z,481.23
2022-12-03T18:32:28.313Z,487.42
2022-12-03T18:34:30.554Z,441.05
2022-12-03T18:36:35.981Z,425.02
2022-12-03T18:38:37.487Z,479.98
2022-12-03T18:40:39.064Z,482.85
2022-12-03T18:42:40.559Z,509.75
2022-12-03T18:44:47.868Z,522.45
2022-12-03T18:46:53.814Z,430.30
2022-12-03T18:48:55.835Z,433.95
2022-12-03T18:50:57.455Z,489.02
2022-12-03T18:52:58.924Z,515.17
2022-12-03T18:55:00.422Z,460.10
2022-12-03T18:57:01.903Z,382.35
2022-12-03T18:59:03.536Z,475.48
2022-12-03T19:01:06.609Z,359.30
2022-12-03T19:03:08.215Z,553.83
2022-12-03T19:05:10.252Z,443.48
2022-12-03T19:07:13.058Z,374.80
2022-12-03T19:09:14.639Z,374.42
2022-12-03T19:11:16.261Z,501.10
2022-12-03T19:13:17.790Z,534.70
2022-12-03T19:15:19.458Z,397.10
2022-12-03T19:17:21.701Z,334.58
2022-12-03T19:19:27.228Z,385.58
2022-12-03T19:21:33.556Z,321.83
2022-12-03T19:23:36.840Z,374.20
2022-12-03T19:25:38.627Z,394.27
2022-12-03T19:27:40.143Z,423.20
2022-12-03T19:29:41.678Z,367.23
2022-12-03T19:31:43.237Z,451.85
2022-12-03T19:33:45.555Z,389.23
2022-12-03T19:35:47.036Z,408.83
2022-12-03T19:37:49.577Z,357.30
2022-12-03T19:39:54.535Z,349.42
2022-12-03T19:41:56.275Z,402.02
2022-12-03T19:43:58.197Z,357.17
2022-12-03T19:46:08.622Z,368.75
2022-12-03T19:48:10.235Z,393.02
2022-12-03T19:50:12.035Z,365.33
2022-12-03T19:52:13.530Z,336.20
2022-12-03T19:54:15.593Z,319.35
2022-12-03T19:56:19.042Z,323.30
2022-12-03T19:58:21.063Z,373.98
2022-12-03T20:00:22.564Z,341.25
2022-12-03T20:02:24.155Z,349.92
2022-12-03T20:04:25.770Z,397.83
2022-12-03T20:06:31.294Z,363.58
2022-12-03T20:08:32.942Z,488.10
2022-12-03T20:10:35.303Z,340.65
2022-12-03T20:12:37.030Z,333.95
2022-12-03T20:14:38.543Z,309.75
2022-12-03T20:16:40.596Z,316.95
2022-12-03T20:18:43.977Z,287.63
2022-12-03T20:20:45.498Z,265.75
2022-12-03T20:22:46.995Z,294.52
2022-12-03T20:24:48.446Z,280.60
2022-12-03T20:26:49.930Z,287.17
2022-12-03T20:28:54.000Z,275.35
2022-12-03T20:31:11.792Z,264.08
2022-12-03T20:33:13.715Z,249.15
2022-12-03T20:35:15.242Z,232.43
2022-12-03T20:37:17.612Z,226.43
2022-12-03T20:39:19.098Z,240.25
2022-12-03T20:41:20.971Z,236.73
2022-12-03T20:43:22.488Z,225.35
2022-12-03T20:45:24.050Z,247.23
2022-12-03T20:47:25.527Z,219.88
2022-12-03T20:49:27.030Z,243.13
2022-12-03T20:51:30.374Z,168.77
2022-12-03T20:53:32.099Z,203.55
2022-12-03T20:55:33.925Z,205.63
2022-12-03T20:57:35.410Z,186.10
2022-12-03T20:59:37.001Z,190.82
2022-12-03T21:01:39.030Z,174.30
2022-12-03T21:03:40.661Z,204.63
2022-12-03T21:05:43.928Z,321.75
2022-12-03T21:07:47.850Z,221.30
2022-12-03T21:09:49.448Z,195.20
2022-12-03T21:11:51.141Z,194.23
2022-12-03T21:13:53.973Z,204.63
2022-12-03T21:16:04.099Z,190.65
2022-12-03T21:18:05.728Z,197.18
2022-12-03T21:20:07.632Z,180.43
2022-12-03T21:22:09.072Z,179.15
2022-12-03T21:24:11.803Z,187.02
2022-12-03T21:26:16.054Z,192.95
2022-12-03T21:28:17.517Z,169.30
2022-12-03T21:30:19.067Z,153.35
2022-12-03T21:32:20.558Z,155.90
2022-12-03T21:34:21.990Z,179.07
2022-12-03T21:36:24.727Z,163.07
2022-12-03T21:38:27.603Z,177.25
2022-12-03T21:40:29.175Z,169.38
2022-12-03T21:42:36.013Z,169.32
2022-12-03T21:44:38.501Z,157.38
2022-12-03T21:47:12.407Z,148.38
2022-12-03T21:49:01.777Z,153.80
2022-12-03T21:51:07.185Z,118.80
2022-12-03T21:53:08.917Z,117.82
2022-12-03T21:55:10.709Z,128.35
2022-12-03T21:57:12.150Z,149.75
2022-12-03T21:59:13.640Z,141.02
2022-12-03T22:01:21.145Z,161.05
2022-12-03T22:03:22.695Z,144.60
2022-12-03T22:05:24.306Z,147.40
2022-12-03T22:07:25.834Z,134.48
2022-12-03T22:09:27.419Z,149.05
2022-12-03T22:11:28.884Z,133.15
2022-12-03T22:13:30.595Z,167.88
2022-12-03T22:15:32.191Z,166.13
2022-12-03T22:17:35.343Z,160.13
2022-12-03T22:19:36.915Z,124.90
2022-12-03T22:21:38.353Z,127.57
2022-12-03T22:23:40.574Z,127.25
2022-12-03T22:25:42.164Z,159.48
2022-12-03T22:27:43.668Z,152.27
2022-12-03T22:29:45.156Z,126.45
2022-12-03T22:31:46.769Z,155.07
2022-12-03T22:33:49.646Z,114.05
2022-12-03T22:36:02.348Z,136.02
2022-12-03T22:38:03.835Z,123.53
2022-12-03T22:40:06.034Z,125.40
2022-12-03T22:42:07.496Z,131.27
2022-12-03T22:44:09.358Z,137.77
2022-12-03T22:46:12.717Z,136.13
2022-12-03T22:48:14.694Z,132.00
2022-12-03T22:50:16.289Z,102.45
2022-12-03T22:52:17.830Z,129.40
2022-12-03T22:54:23.787Z,128.30
2022-12-03T22:56:26.954Z,122.10
2022-12-03T22:58:28.682Z,132.60
2022-12-03T23:00:39.240Z,107.93
2022-12-03T23:02:40.775Z,112.03
2022-12-03T23:04:42.244Z,119.28
2022-12-03T23:06:43.783Z,148.38
2022-12-03T23:08:45.707Z,144.90
2022-12-03T23:10:51.090Z,137.32
2022-12-03T23:12:52.525Z,131.98
2022-12-03T23:14:55.208Z,112.72
2022-12-03T23:16:56.760Z,127.25
2022-12-03T23:18:59.973Z,143.18
2022-12-03T23:21:01.586Z,121.72
2022-12-03T23:23:03.051Z,144.05
2022-12-03T23:25:07.320Z,112.55
2022-12-03T23:27:08.940Z,145.90
2022-12-03T23:29:10.348Z,170.93
2022-12-03T23:31:29.991Z,202.38
2022-12-03T23:33:38.023Z,132.35
2022-12-03T23:35:39.948Z,144.20
2022-12-03T23:37:42.987Z,90.43
2022-12-03T23:39:44.555Z,94.07
2022-12-03T23:41:46.065Z,131.65
2022-12-03T23:43:48.114Z,134.23
2022-12-03T23:45:49.584Z,127.85
2022-12-03T23:47:55.087Z,159.45
2022-12-03T23:49:59.590Z,140.75
2022-12-03T23:52:01.087Z,159.45
2022-12-03T23:54:02.621Z,138.82
2022-12-03T23:56:15.375Z,145.60
2022-12-03T23:58:16.802Z,144.77
